Weather at Pendopo Airport

Public forecast

Using degrees Celsius for public forecast. Weather courtesy of forecast.io.

Closest aviation weather report (METAR) to Pendopo Airport

Report is more than 6 hours old.

Closest report is Sultan Mahmud Badaruddin II Airport, 54.3 nm (100.6 km) ENE.

2024/06/24 06:30 (retrieved 1 day ago)

WIPP 240630Z VRB02KT 9999 SCT010 31/24 Q1008 NOSIG

Closest aviation forecast (TAF) to Pendopo Airport

Forecast is more than 12 hours old.

Closest forecast is Bentayan Airport, 53.4 nm (99.0 km) SW.

2024/06/24 06:00 (retrieved 1 day ago)

TAF WIPY 240500Z 2406/2418 09007KT 8000 SCT010 TEMPO 2408/2411 BKN010